Capon Bridge, WV (26711)

12:29 AM EDT on October 26, 2014 (GMT -0400)
Hanging Rock, WV - 2 Miles North | Change Station
CLOSE
Current Station
Personal Weather Station
Location: Augusta, WV
Elevation: 869 ft
Nearby Weather Stations

Elev 869 ft 39.28 °N, 78.54 °W | Updated 31 seconds ago

Partly Cloudy
Partly Cloudy
64.2 °F
Feels Like 64.2 °F
N
0.9
Wind Variable Wind from ENE
Gusts 7.0 mph

Today
High -- | Low -- °F
--% Chance of Precip.
Yesterday
High -- | Low -- °F
Precip. -- in
7:35 AM 6:20 PM
Waxing Crescent, 6% visible
Pressure 29.71 in
Visibility 10.0 miles
Clouds Scattered Clouds 5000 ft
Dew Point 51 °F
Humidity 63%
Rainfall 0.00 in
Snow Depth Not available.
UV 0 out of 12
Pollen 1.70 out of 12
Air Quality Not available.
Flu Activity Sporadic
METAR KOKV 260415Z AUTO 28009KT 10SM SCT050 18/06 A2971 RMK AO2

More Conditions Fewer Conditions

Pressure 29.71 in
Visibility 10.0 miles
Clouds Scattered Clouds 5000 ft
Dew Point 51 °F
Humidity 63%
Rainfall 0.00 in
Snow Depth Not available.
UV 0 out of 12
Pollen 1.70 out of 12
Air Quality Not available.
Flu Activity Sporadic
METAR KOKV 260415Z AUTO 28009KT 10SM SCT050 18/06 A2971 RMK AO2

More Conditions Fewer Conditions

10-Day Weather Forecast

Almanac

Astronomy

Oct. 26, 2014 Rise Set
Actual Time 7:35 AM EDT 6:20 PM EDT
Civil Twilight 7:07 AM EDT 6:47 PM EDT
Nautical Twilight 6:36 AM EDT 7:18 PM EDT
Astronomical Twilight 6:05 AM EDT 7:49 PM EDT
Moon 10:10 AM EDT 8:30 PM EDT
Length of Visible Light 11h 39m
Length of Day
10h 44m
Tomorrow will be 2m 21s shorter.
Waxing Crescent, 6% of the Moon is Illuminated
Today
Waxing Crescent
Oct 30
First Quarter
Nov 6
Full
Nov 14
Last Quarter
Nov 22
New

Today's Extremes

State Highs State Lows

Community

WunderPhotos

Upload Photos

1,765,110 photos uploaded!

Nearby

Snow Depth

Station Depth Elevation
No new snow has been reported.

Earthquake Activity

City Distance Mag. Time & Date
No recent earthquake activity has been reported nearby.
Minimum magnitude displayed is 2.5.

Coastal Water Temperatures

Place Temperature
No Stations Reporting

Nearby Weather Stations